Time;durP1;ratioP1;P1;durP2;ratioP2;P2;SDS_P1;SDS_P2;PMS_P1;PMS_P2;Temp;Humidity;BMP_temperature;BMP_pressure;BME280_temperature;BME280_humidity;BME280_pressure;Samples;Min_cycle;Max_cycle;Signal;HPM_P1;HPM_P2
2023/03/01 00:01:16;;;;;;;32.10;21.30;;;0.90;80.50;;;;;;5072892;28;20220;-69
2023/03/01 00:03:45;;;;;;;40.38;23.10;;;1.00;80.60;;;;;;5071590;28;20188;-69
2023/03/01 00:06:13;;;;;;;33.75;20.95;;;1.00;80.70;;;;;;5053037;28;20205;-68
2023/03/01 00:08:40;;;;;;;37.10;22.75;;;1.00;80.70;;;;;;5053747;28;20667;-68
2023/03/01 00:11:09;;;;;;;34.30;21.90;;;1.10;81.00;;;;;;5052784;28;20192;-68
2023/03/01 00:13:37;;;;;;;33.60;20.73;;;1.10;81.00;;;;;;5054642;28;20192;-68
2023/03/01 00:16:07;;;;;;;36.97;21.10;;;1.10;81.10;;;;;;5072762;28;20203;-69
2023/03/01 00:18:39;;;;;;;31.73;20.52;;;1.00;80.90;;;;;;5069913;28;20278;-69
2023/03/01 00:21:07;;;;;;;36.25;23.65;;;1.10;81.10;;;;;;5052710;28;20192;-69
2023/03/01 00:23:36;;;;;;;35.25;22.77;;;1.10;81.10;;;;;;5053751;28;20205;-68
2023/03/01 00:26:03;;;;;;;38.95;23.10;;;1.00;81.10;;;;;;5072736;28;20260;-68
2023/03/01 00:28:30;;;;;;;35.30;22.65;;;1.10;81.10;;;;;;5070553;28;20196;-68
2023/03/01 00:31:03;;;;;;;36.58;23.60;;;1.10;80.80;;;;;;5052522;28;20193;-68
2023/03/01 00:33:32;;;;;;;40.85;22.02;;;1.10;80.70;;;;;;5052732;28;20197;-69
2023/03/01 00:36:00;;;;;;;39.28;22.73;;;1.10;80.70;;;;;;5072536;28;20192;-68
2023/03/01 00:38:27;;;;;;;35.53;22.23;;;1.00;80.60;;;;;;5071413;28;20559;-69
2023/03/01 00:40:54;;;;;;;34.63;22.17;;;1.00;80.60;;;;;;5052316;28;20684;-68
2023/03/01 00:43:22;;;;;;;40.90;21.90;;;1.00;80.90;;;;;;5058447;28;20184;-71
2023/03/01 00:45:50;;;;;;;35.30;23.10;;;1.00;81.00;;;;;;5071714;28;20690;-69
2023/03/01 00:48:19;;;;;;;33.22;22.25;;;1.00;81.00;;;;;;5070372;28;20600;-69
2023/03/01 00:50:49;;;;;;;34.42;22.77;;;1.00;81.00;;;;;;5072167;28;20320;-69
2023/03/01 00:53:20;;;;;;;36.58;22.83;;;1.10;81.30;;;;;;5066414;28;20197;-69
2023/03/01 00:55:48;;;;;;;40.53;22.20;;;1.10;80.90;;;;;;5051917;28;20193;-68
2023/03/01 00:58:15;;;;;;;31.98;21.80;;;1.10;81.00;;;;;;5056413;28;20192;-68
2023/03/01 01:00:43;;;;;;;36.63;22.08;;;1.10;81.10;;;;;;5071495;28;20221;-69
2023/03/01 01:03:10;;;;;;;34.47;22.50;;;1.00;80.90;;;;;;5068526;28;20250;-68
2023/03/01 01:05:37;;;;;;;32.30;21.35;;;1.10;80.90;;;;;;5052057;28;20275;-69
2023/03/01 01:08:06;;;;;;;34.53;22.85;;;1.00;80.70;;;;;;5054042;28;20210;-68
2023/03/01 01:10:35;;;;;;;32.63;21.65;;;1.00;80.90;;;;;;5065858;28;20197;-68
2023/03/01 01:13:02;;;;;;;35.67;22.13;;;1.10;81.20;;;;;;5053222;28;20192;-68
2023/03/01 01:15:29;;;;;;;37.78;23.00;;;1.00;81.30;;;;;;5071968;28;20197;-69
2023/03/01 01:17:57;;;;;;;35.03;22.17;;;1.00;81.30;;;;;;5070244;28;20647;-68
2023/03/01 01:20:24;;;;;;;40.38;24.05;;;1.10;81.40;;;;;;5059039;28;20734;-68
2023/03/01 01:22:52;;;;;;;35.25;21.95;;;1.10;81.20;;;;;;5053513;28;20288;-69
2023/03/01 01:25:21;;;;;;;31.20;20.63;;;1.10;80.70;;;;;;5071814;28;20223;-69
2023/03/01 01:27:48;;;;;;;35.65;22.60;;;1.00;80.90;;;;;;5070239;28;20330;-69
2023/03/01 01:30:15;;;;;;;34.03;21.75;;;1.00;81.30;;;;;;5061193;28;20192;-68
2023/03/01 01:32:43;;;;;;;32.33;24.13;;;1.00;81.80;;;;;;5066062;28;20654;-68
2023/03/01 01:35:10;;;;;;;38.70;21.42;;;1.00;81.50;;;;;;5067686;28;20632;-68
2023/03/01 01:37:37;;;;;;;35.83;23.52;;;1.00;81.50;;;;;;5066752;28;20193;-68
2023/03/01 01:40:06;;;;;;;34.53;22.30;;;1.00;81.40;;;;;;5051564;28;20229;-68
2023/03/01 01:42:35;;;;;;;39.70;24.55;;;1.00;81.50;;;;;;5054453;28;20189;-68
2023/03/01 01:45:32;;;;;;;36.47;23.30;;;1.00;81.80;;;;;;5057100;28;20194;-68
2023/03/01 01:48:04;;;;;;;40.60;24.13;;;1.10;82.00;;;;;;5057134;28;20294;-68
2023/03/01 01:50:37;;;;;;;39.92;23.48;;;1.00;82.00;;;;;;5071714;28;20205;-68
2023/03/01 01:53:08;;;;;;;35.88;23.17;;;1.10;82.20;;;;;;5065133;28;20198;-68
2023/03/01 01:55:37;;;;;;;32.38;20.42;;;1.10;81.90;;;;;;5069428;28;20201;-68
2023/03/01 01:58:09;;;;;;;43.55;23.90;;;1.10;81.60;;;;;;5061519;28;20559;-68
2023/03/01 02:00:38;;;;;;;36.63;24.42;;;1.10;81.50;;;;;;5055385;28;20603;-69
2023/03/01 02:03:11;;;;;;;40.65;24.85;;;1.10;81.90;;;;;;5066721;28;20223;-69
2023/03/01 02:05:44;;;;;;;32.63;22.02;;;1.10;82.10;;;;;;5056510;28;20193;-68
2023/03/01 02:08:14;;;;;;;43.17;25.10;;;1.10;82.10;;;;;;5067007;28;20200;-70
2023/03/01 02:10:42;;;;;;;38.58;23.13;;;1.10;82.30;;;;;;5075524;28;20200;-69
2023/03/01 02:13:11;;;;;;;34.92;22.80;;;1.10;82.30;;;;;;5063531;28;20202;-68
2023/03/01 02:15:41;;;;;;;37.80;24.15;;;1.10;82.40;;;;;;5072248;28;20284;-69
2023/03/01 02:18:11;;;;;;;36.28;22.65;;;1.10;82.40;;;;;;5034918;28;20198;-68
2023/03/01 02:20:46;;;;;;;34.72;22.52;;;1.10;82.20;;;;;;5034901;28;20272;-68
2023/03/01 02:23:13;;;;;;;35.95;22.88;;;1.10;82.10;;;;;;5035002;28;20190;-69
2023/03/01 02:25:52;;;;;;;35.63;21.92;;;1.10;82.30;;;;;;5071335;28;20533;-69
2023/03/01 02:28:35;;;;;;;38.78;24.13;;;1.20;82.50;;;;;;5074934;28;20205;-69
2023/03/01 02:33:48;;;;;;;37.40;23.00;;;1.20;82.60;;;;;;5049526;28;20193;-69
2023/03/01 02:36:20;;;;;;;39.17;23.90;;;1.20;82.70;;;;;;5054520;28;20280;-68
2023/03/01 02:38:50;;;;;;;39.85;22.80;;;1.20;82.80;;;;;;5066119;28;20193;-69
2023/03/01 02:41:20;;;;;;;32.67;23.00;;;1.20;83.10;;;;;;5072474;28;20225;-69
2023/03/01 02:43:49;;;;;;;36.22;22.52;;;1.20;83.30;;;;;;5074531;28;20204;-69
2023/03/01 02:46:18;;;;;;;38.25;23.20;;;1.20;83.30;;;;;;5065380;28;20318;-69
2023/03/01 02:48:48;;;;;;;32.28;21.60;;;1.20;83.20;;;;;;5054437;28;20205;-69
2023/03/01 02:51:45;;;;;;;39.70;23.23;;;1.20;83.30;;;;;;5055101;28;20251;-69
2023/03/01 02:54:21;;;;;;;32.08;20.75;;;1.20;83.60;;;;;;5054132;28;20238;-69
2023/03/01 02:56:49;;;;;;;34.22;21.55;;;1.20;83.40;;;;;;5066607;28;20187;-69
2023/03/01 02:59:20;;;;;;;36.90;23.17;;;1.20;83.60;;;;;;5074007;28;20257;-69
2023/03/01 03:01:48;;;;;;;36.55;23.13;;;1.20;83.90;;;;;;5060665;28;20228;-68
2023/03/01 03:04:17;;;;;;;35.10;23.10;;;1.20;83.90;;;;;;5054199;28;20190;-69
2023/03/01 03:06:46;;;;;;;35.42;23.65;;;1.20;84.00;;;;;;5065387;28;20215;-70
2023/03/01 03:09:15;;;;;;;36.15;22.92;;;1.20;83.90;;;;;;5073607;28;20251;-68
2023/03/01 03:11:42;;;;;;;32.05;22.20;;;1.20;83.90;;;;;;5056891;28;20204;-68
2023/03/01 03:14:12;;;;;;;33.28;23.10;;;1.30;84.10;;;;;;5054047;28;20190;-68
2023/03/01 03:16:43;;;;;;;32.80;21.67;;;1.30;84.00;;;;;;5069151;28;20192;-68
2023/03/01 03:19:11;;;;;;;33.67;21.05;;;1.30;84.10;;;;;;5073733;28;20232;-68
2023/03/01 03:21:39;;;;;;;35.63;20.58;;;1.30;84.30;;;;;;5071796;28;20184;-69
2023/03/01 03:24:06;;;;;;;29.33;20.33;;;1.30;85.40;;;;;;5073625;28;20563;-68
2023/03/01 03:26:34;;;;;;;31.40;19.75;;;1.40;84.90;;;;;;5057033;28;20262;-69
2023/03/01 03:29:01;;;;;;;30.80;18.90;;;1.40;85.50;;;;;;5053505;28;20250;-68
2023/03/01 03:31:29;;;;;;;22.90;16.27;;;1.40;85.50;;;;;;5068899;28;20312;-69
2023/03/01 03:33:58;;;;;;;27.70;17.38;;;1.40;85.80;;;;;;5073545;28;20262;-68
2023/03/01 03:36:26;;;;;;;31.33;18.90;;;1.50;86.20;;;;;;5058402;28;20199;-68
2023/03/01 03:38:53;;;;;;;29.60;16.60;;;1.50;86.40;;;;;;5053418;28;20209;-69
2023/03/01 03:41:21;;;;;;;26.45;15.77;;;1.50;86.30;;;;;;5066766;28;20223;-68
2023/03/01 03:43:50;;;;;;;27.95;17.70;;;1.60;86.40;;;;;;5073224;28;20193;-69
2023/03/01 03:46:18;;;;;;;28.65;18.50;;;1.60;86.20;;;;;;5063062;28;20216;-68
2023/03/01 03:48:46;;;;;;;21.45;15.50;;;1.60;86.00;;;;;;5053018;28;20666;-68
2023/03/01 03:51:17;;;;;;;26.13;16.27;;;1.70;85.30;;;;;;5053242;28;20195;-69
2023/03/01 03:53:46;;;;;;;21.20;14.32;;;1.70;86.00;;;;;;5053141;28;20573;-69
2023/03/01 03:56:13;;;;;;;21.75;15.35;;;1.70;85.30;;;;;;5053340;28;20197;-68
2023/03/01 03:58:41;;;;;;;27.77;16.73;;;1.70;84.80;;;;;;5063176;28;20196;-68
2023/03/01 04:01:09;;;;;;;26.30;16.17;;;1.70;84.90;;;;;;5056148;28;20217;-68
2023/03/01 04:03:36;;;;;;;24.02;14.07;;;1.70;84.50;;;;;;5053599;28;20185;-69
2023/03/01 04:06:05;;;;;;;25.35;15.98;;;1.80;84.10;;;;;;5064199;28;20200;-68
2023/03/01 04:08:35;;;;;;;23.02;15.25;;;1.80;83.60;;;;;;5064403;28;20190;-69
2023/03/01 04:11:25;;;;;;;25.45;16.95;;;1.80;83.90;;;;;;5067163;28;20211;-71
2023/03/01 04:13:53;;;;;;;26.00;15.13;;;1.80;84.00;;;;;;5062166;28;20731;-69
2023/03/01 04:16:21;;;;;;;24.23;15.13;;;1.80;83.10;;;;;;5052501;28;20233;-69
2023/03/01 04:18:48;;;;;;;27.05;16.38;;;1.80;83.40;;;;;;5061124;28;20211;-69
2023/03/01 04:21:16;;;;;;;23.15;14.98;;;1.80;83.40;;;;;;5055074;28;20220;-69
2023/03/01 04:23:45;;;;;;;25.33;14.73;;;1.80;83.00;;;;;;5059781;28;20185;-69
2023/03/01 04:26:12;;;;;;;24.00;15.85;;;1.80;83.20;;;;;;5072482;28;20196;-68
2023/03/01 04:28:45;;;;;;;22.83;15.13;;;1.80;83.30;;;;;;5070604;28;20191;-69
2023/03/01 04:31:16;;;;;;;22.75;16.00;;;1.80;83.40;;;;;;5072188;28;20211;-68
2023/03/01 04:33:45;;;;;;;25.40;15.70;;;1.80;83.60;;;;;;5065838;28;20185;-68
2023/03/01 04:36:13;;;;;;;22.50;15.05;;;1.90;83.70;;;;;;5064079;28;20227;-69
2023/03/01 04:38:41;;;;;;;27.75;15.70;;;1.90;83.60;;;;;;5066269;28;20186;-68
2023/03/01 04:41:11;;;;;;;26.15;16.30;;;1.90;83.20;;;;;;5052350;28;20256;-69
2023/03/01 04:43:39;;;;;;;25.50;14.52;;;1.90;83.00;;;;;;5056409;28;20691;-68
2023/03/01 04:46:09;;;;;;;25.63;17.13;;;1.90;83.00;;;;;;5062253;28;20188;-69
2023/03/01 04:48:37;;;;;;;25.38;15.70;;;1.90;82.90;;;;;;5055601;28;20242;-69
2023/03/01 04:51:05;;;;;;;23.40;16.55;;;1.90;82.70;;;;;;5072460;28;20197;-69
2023/03/01 04:53:33;;;;;;;25.08;16.15;;;1.90;82.60;;;;;;5069130;28;20204;-68
2023/03/01 04:56:01;;;;;;;22.83;15.50;;;1.90;82.40;;;;;;5052431;28;20191;-68
2023/03/01 04:58:30;;;;;;;23.73;16.20;;;1.90;82.40;;;;;;5052946;28;20193;-69
2023/03/01 05:00:59;;;;;;;25.48;14.65;;;1.90;82.20;;;;;;5071189;28;20256;-69
2023/03/01 05:03:26;;;;;;;27.45;16.65;;;1.90;82.00;;;;;;5071668;28;20189;-69
2023/03/01 05:05:54;;;;;;;21.23;14.23;;;1.90;82.00;;;;;;5058854;28;20217;-69
2023/03/01 05:08:21;;;;;;;18.80;13.23;;;2.00;82.30;;;;;;5072120;28;20192;-69
2023/03/01 05:10:51;;;;;;;24.17;15.50;;;2.00;82.30;;;;;;5052136;28;20190;-69
2023/03/01 05:13:21;;;;;;;22.92;15.63;;;1.90;81.80;;;;;;5051929;28;20198;-70
2023/03/01 05:15:55;;;;;;;24.45;15.48;;;1.90;81.60;;;;;;5063776;28;20183;-69
2023/03/01 05:18:25;;;;;;;23.88;14.65;;;1.90;81.80;;;;;;5052055;28;20196;-69
2023/03/01 05:20:57;;;;;;;23.55;15.48;;;1.90;81.60;;;;;;5070129;28;20706;-68
2023/03/01 05:23:25;;;;;;;26.48;15.13;;;1.90;81.60;;;;;;5070054;28;20236;-70
2023/03/01 05:25:53;;;;;;;30.95;15.38;;;2.00;81.80;;;;;;5071286;28;20197;-69
2023/03/01 05:28:25;;;;;;;25.33;15.07;;;2.00;81.60;;;;;;5071457;28;20287;-69
2023/03/01 05:30:54;;;;;;;19.05;12.80;;;2.00;81.40;;;;;;5052603;28;20197;-70
2023/03/01 05:33:21;;;;;;;23.10;14.52;;;2.00;81.30;;;;;;5056080;28;20277;-69
2023/03/01 05:35:50;;;;;;;21.58;14.60;;;1.90;81.10;;;;;;5076099;28;20229;-69
2023/03/01 05:38:18;;;;;;;26.05;15.35;;;2.00;81.10;;;;;;5063791;28;20196;-70
2023/03/01 05:40:47;;;;;;;25.00;15.10;;;2.00;81.00;;;;;;5055812;28;20553;-68
2023/03/01 05:43:17;;;;;;;21.52;13.57;;;1.90;81.20;;;;;;5065557;28;20223;-69
2023/03/01 05:45:45;;;;;;;24.33;15.70;;;1.90;81.00;;;;;;5075765;28;20196;-69
2023/03/01 05:48:19;;;;;;;26.13;15.63;;;2.00;81.00;;;;;;5065620;28;20591;-68
2023/03/01 05:50:47;;;;;;;20.20;14.65;;;1.90;81.00;;;;;;5055310;28;20264;-69
2023/03/01 05:53:16;;;;;;;22.52;14.20;;;1.90;81.10;;;;;;5064508;28;20196;-68
2023/03/01 05:55:47;;;;;;;24.50;14.65;;;1.90;81.10;;;;;;5075599;28;20207;-69
2023/03/01 05:58:16;;;;;;;21.05;14.63;;;1.90;81.30;;;;;;5065705;28;20193;-69
2023/03/01 06:00:46;;;;;;;26.17;15.05;;;1.90;81.00;;;;;;5075588;28;20264;-69
2023/03/01 06:03:16;;;;;;;23.83;15.98;;;1.90;81.00;;;;;;5066400;28;20653;-69
2023/03/01 06:05:44;;;;;;;22.70;14.80;;;1.90;81.40;;;;;;5055460;28;20200;-69
2023/03/01 06:08:12;;;;;;;25.20;15.82;;;1.90;81.30;;;;;;5063842;28;20193;-68
2023/03/01 06:10:40;;;;;;;25.23;17.55;;;1.90;81.30;;;;;;5057874;28;20407;-69
2023/03/01 06:13:09;;;;;;;26.10;18.67;;;1.90;81.40;;;;;;5062952;28;20578;-68
2023/03/01 06:15:36;;;;;;;21.88;15.27;;;1.90;81.30;;;;;;5072771;28;20193;-69
2023/03/01 06:18:04;;;;;;;24.38;14.80;;;1.90;81.40;;;;;;5067887;28;20187;-69
2023/03/01 06:20:34;;;;;;;28.92;16.40;;;2.00;81.30;;;;;;5055198;28;20216;-68
2023/03/01 06:23:01;;;;;;;30.85;19.20;;;2.00;80.90;;;;;;5052158;28;20637;-69
2023/03/01 06:25:29;;;;;;;26.50;16.20;;;2.00;80.80;;;;;;5065567;28;20188;-68
2023/03/01 06:27:56;;;;;;;21.95;15.48;;;2.00;80.60;;;;;;5066410;28;20540;-68
2023/03/01 06:30:25;;;;;;;24.65;16.15;;;2.00;80.50;;;;;;5054787;28;20677;-69
2023/03/01 06:32:52;;;;;;;26.42;15.20;;;2.10;80.60;;;;;;5061946;28;20199;-69
2023/03/01 06:35:20;;;;;;;25.83;16.88;;;2.00;80.20;;;;;;5064193;28;20214;-69
2023/03/01 06:37:49;;;;;;;22.17;15.25;;;2.00;80.40;;;;;;5060353;28;20239;-69
2023/03/01 06:40:17;;;;;;;21.63;14.43;;;2.10;80.70;;;;;;5075013;28;20193;-71
2023/03/01 06:42:49;;;;;;;24.35;15.57;;;2.00;80.60;;;;;;5068830;28;20186;-69
2023/03/01 06:45:18;;;;;;;25.40;16.88;;;2.10;80.70;;;;;;5059832;28;20597;-69
2023/03/01 06:47:55;;;;;;;25.63;16.20;;;2.20;80.70;;;;;;5054556;28;20280;-68
2023/03/01 06:50:23;;;;;;;22.13;15.25;;;2.20;80.50;;;;;;5057711;28;20200;-68
2023/03/01 06:52:56;;;;;;;23.38;13.77;;;2.30;80.90;;;;;;5074030;28;20215;-68
2023/03/01 06:55:24;;;;;;;28.05;15.63;;;2.40;80.90;;;;;;5064023;28;20192;-69
2023/03/01 06:57:56;;;;;;;20.48;14.70;;;2.40;80.30;;;;;;5054072;28;20196;-68
2023/03/01 07:00:25;;;;;;;22.35;15.90;;;2.40;79.70;;;;;;5062856;28;20228;-68
2023/03/01 07:02:52;;;;;;;24.27;15.10;;;2.40;79.50;;;;;;5073519;28;20218;-69
2023/03/01 07:05:19;;;;;;;23.45;14.75;;;2.50;78.90;;;;;;5064596;28;20183;-68
2023/03/01 07:07:47;;;;;;;22.00;14.80;;;2.50;78.40;;;;;;5054251;28;20197;-69
2023/03/01 07:10:16;;;;;;;21.25;14.90;;;2.50;78.20;;;;;;5061409;28;20200;-68
2023/03/01 07:12:43;;;;;;;22.42;14.35;;;2.50;78.10;;;;;;5059121;28;20548;-68
2023/03/01 07:15:11;;;;;;;23.70;16.92;;;2.50;78.00;;;;;;5060290;28;20555;-69
2023/03/01 07:17:39;;;;;;;31.13;22.00;;;2.50;77.60;;;;;;5074032;28;20225;-68
2023/03/01 07:20:07;;;;;;;20.17;14.05;;;2.50;77.60;;;;;;5070058;28;20194;-68
2023/03/01 07:22:36;;;;;;;24.80;16.15;;;2.50;77.40;;;;;;5061695;28;20750;-69
2023/03/01 07:25:03;;;;;;;21.17;15.18;;;2.50;77.30;;;;;;5062368;28;20525;-68
2023/03/01 07:27:34;;;;;;;25.73;17.17;;;2.50;77.60;;;;;;5073885;28;20613;-68
2023/03/01 07:30:01;;;;;;;24.10;17.80;;;2.50;77.50;;;;;;5064921;28;20190;-68
2023/03/01 07:32:28;;;;;;;22.83;15.80;;;2.60;77.10;;;;;;5053721;28;20194;-68
2023/03/01 07:34:55;;;;;;;26.67;16.75;;;2.60;76.70;;;;;;5054784;28;20202;-68
2023/03/01 07:37:23;;;;;;;26.15;18.35;;;2.50;76.50;;;;;;5063284;28;20190;-68
2023/03/01 07:39:50;;;;;;;24.90;16.70;;;2.50;76.50;;;;;;5066884;28;20642;-68
2023/03/01 07:42:17;;;;;;;25.67;17.42;;;2.60;76.60;;;;;;5053768;28;20550;-68
2023/03/01 07:44:51;;;;;;;27.55;17.65;;;2.60;76.40;;;;;;5058728;28;20221;-69
2023/03/01 07:47:18;;;;;;;25.83;16.95;;;2.60;76.80;;;;;;5073352;28;20196;-68
2023/03/01 07:49:45;;;;;;;23.95;17.00;;;2.60;76.00;;;;;;5056614;28;20198;-70
2023/03/01 07:52:13;;;;;;;27.35;18.30;;;2.60;75.80;;;;;;5056112;28;20226;-69
2023/03/01 07:54:43;;;;;;;30.17;19.45;;;2.60;75.70;;;;;;5050597;28;20198;-69
2023/03/01 07:57:11;;;;;;;27.90;19.20;;;2.60;75.80;;;;;;5051691;28;20661;-68
2023/03/01 07:59:38;;;;;;;27.05;19.13;;;2.60;75.20;;;;;;5051482;28;20198;-68
2023/03/01 08:02:07;;;;;;;28.48;18.10;;;2.70;75.50;;;;;;5050051;28;20232;-69
2023/03/01 08:04:34;;;;;;;26.67;17.02;;;2.70;75.50;;;;;;5051451;28;20190;-68
2023/03/01 08:07:01;;;;;;;22.02;16.05;;;2.70;74.80;;;;;;5051132;28;20739;-70
2023/03/01 08:09:28;;;;;;;27.60;16.45;;;2.80;75.20;;;;;;5053083;28;20630;-68
2023/03/01 08:11:57;;;;;;;22.13;16.50;;;2.80;74.70;;;;;;5050928;28;20198;-68
2023/03/01 08:14:24;;;;;;;23.55;15.45;;;2.80;73.70;;;;;;5051240;28;20189;-68
2023/03/01 08:16:51;;;;;;;29.77;17.55;;;2.80;73.70;;;;;;5051696;28;20198;-68
2023/03/01 08:19:20;;;;;;;24.45;17.05;;;2.80;73.70;;;;;;5051032;28;20272;-69
2023/03/01 08:21:47;;;;;;;24.40;16.55;;;2.80;73.20;;;;;;5047276;28;20279;-68
2023/03/01 08:24:14;;;;;;;24.02;15.57;;;2.80;73.10;;;;;;5051237;28;20289;-68
2023/03/01 08:26:41;;;;;;;27.58;16.85;;;2.80;73.20;;;;;;5051663;28;20196;-68
2023/03/01 08:29:08;;;;;;;23.33;17.08;;;2.90;73.00;;;;;;5046290;28;20198;-69
2023/03/01 08:31:38;;;;;;;23.42;17.73;;;3.00;72.50;;;;;;5050964;28;20194;-68
2023/03/01 08:34:08;;;;;;;24.40;16.33;;;3.00;72.60;;;;;;5050952;28;20217;-68
2023/03/01 08:36:44;;;;;;;30.23;18.27;;;3.00;72.70;;;;;;5050799;28;20201;-68
2023/03/01 08:39:13;;;;;;;24.95;17.35;;;3.10;72.60;;;;;;5048057;28;20226;-68
2023/03/01 08:41:41;;;;;;;27.30;17.33;;;3.10;72.60;;;;;;5050879;28;20210;-68
2023/03/01 08:44:10;;;;;;;25.25;17.75;;;3.20;72.70;;;;;;5050319;28;20222;-68
2023/03/01 08:46:38;;;;;;;25.77;18.17;;;3.20;71.80;;;;;;5050687;28;20703;-68
2023/03/01 08:49:06;;;;;;;27.45;18.15;;;3.30;72.20;;;;;;5050553;28;20580;-68
2023/03/01 08:51:36;;;;;;;25.40;17.45;;;3.30;71.60;;;;;;5050262;28;20552;-70
2023/03/01 08:54:05;;;;;;;25.70;16.15;;;3.40;71.00;;;;;;5046461;28;20244;-68
2023/03/01 08:56:33;;;;;;;29.40;18.30;;;3.40;70.80;;;;;;5050280;28;20197;-68
2023/03/01 08:59:00;;;;;;;22.73;17.10;;;3.40;70.90;;;;;;5050603;28;20198;-68
2023/03/01 09:01:27;;;;;;;24.38;17.23;;;3.50;70.60;;;;;;5049726;28;20742;-69
2023/03/01 09:03:54;;;;;;;23.83;16.00;;;3.60;70.10;;;;;;5050549;28;20190;-69
2023/03/01 09:06:26;;;;;;;28.25;16.65;;;3.60;69.90;;;;;;5049731;28;20197;-69
2023/03/01 09:08:54;;;;;;;25.70;17.42;;;3.70;70.00;;;;;;5052099;28;20186;-69
2023/03/01 09:11:23;;;;;;;22.45;16.30;;;3.70;69.80;;;;;;5051579;28;20210;-69
2023/03/01 09:13:51;;;;;;;25.15;18.13;;;3.80;69.60;;;;;;5050471;28;20199;-68
2023/03/01 09:16:22;;;;;;;28.92;17.27;;;3.90;69.20;;;;;;5050444;28;20286;-68
2023/03/01 09:18:51;;;;;;;24.85;18.00;;;4.10;68.60;;;;;;5050577;28;20278;-68
2023/03/01 09:21:20;;;;;;;25.95;19.13;;;4.10;68.30;;;;;;5050623;28;20297;-69
2023/03/01 09:23:49;;;;;;;24.48;17.75;;;4.30;68.00;;;;;;5050193;28;20213;-70
2023/03/01 09:26:18;;;;;;;23.85;17.70;;;4.30;67.10;;;;;;5049918;28;20582;-69
2023/03/01 09:28:48;;;;;;;26.85;17.77;;;4.40;66.40;;;;;;5050472;28;20202;-69
2023/03/01 09:31:16;;;;;;;25.98;19.25;;;4.50;67.00;;;;;;5050630;28;20237;-68
2023/03/01 09:33:46;;;;;;;25.75;17.67;;;4.50;65.60;;;;;;5045636;28;20277;-69
2023/03/01 09:36:15;;;;;;;25.10;19.00;;;4.50;65.50;;;;;;5050526;28;20649;-69
2023/03/01 09:38:44;;;;;;;25.80;16.88;;;4.50;65.40;;;;;;5047006;28;20252;-69
2023/03/01 09:41:20;;;;;;;26.50;17.67;;;4.60;64.90;;;;;;5047027;28;20191;-69
2023/03/01 09:43:53;;;;;;;24.27;16.80;;;4.60;65.00;;;;;;5050377;28;20209;-69
2023/03/01 09:46:24;;;;;;;21.88;16.25;;;4.70;64.50;;;;;;5046937;28;20228;-69
2023/03/01 09:48:56;;;;;;;22.60;15.70;;;4.80;63.70;;;;;;5043671;28;20201;-68
2023/03/01 09:51:30;;;;;;;22.63;17.27;;;4.90;63.90;;;;;;5049850;28;20229;-69
2023/03/01 09:54:00;;;;;;;24.75;15.98;;;5.00;63.50;;;;;;5046165;28;20190;-69
2023/03/01 09:56:34;;;;;;;22.70;16.23;;;5.10;62.90;;;;;;5050199;28;20205;-68
2023/03/01 09:59:15;;;;;;;24.85;16.00;;;5.20;62.60;;;;;;5050053;28;20193;-69
2023/03/01 10:01:53;;;;;;;22.42;17.00;;;5.30;62.50;;;;;;5050182;28;20230;-68
2023/03/01 10:04:42;;;;;;;24.48;16.48;;;5.40;61.80;;;;;;5046016;28;20233;-69
2023/03/01 10:07:22;;;;;;;25.15;17.10;;;5.50;61.10;;;;;;5049532;28;20201;-69
2023/03/01 10:09:49;;;;;;;25.10;15.52;;;5.70;60.20;;;;;;5050207;28;20190;-68
2023/03/01 10:12:19;;;;;;;23.73;16.13;;;5.90;60.10;;;;;;5049589;28;20244;-70
2023/03/01 10:14:57;;;;;;;23.10;15.55;;;6.30;59.30;;;;;;5050202;28;20218;-69
2023/03/01 10:17:32;;;;;;;24.45;15.10;;;6.70;59.00;;;;;;5050271;28;20209;-68
2023/03/01 10:20:17;;;;;;;24.20;16.92;;;7.10;58.50;;;;;;5053951;28;20645;-69
2023/03/01 10:22:50;;;;;;;23.45;16.17;;;7.40;57.00;;;;;;5053272;28;20688;-69
2023/03/01 10:25:21;;;;;;;24.92;17.33;;;7.50;55.90;;;;;;5053831;28;20222;-69
2023/03/01 10:27:54;;;;;;;20.27;16.33;;;7.60;55.20;;;;;;5053213;28;20662;-69
2023/03/01 10:30:35;;;;;;;22.20;15.35;;;7.60;54.90;;;;;;5049498;28;20633;-70
2023/03/01 10:33:04;;;;;;;22.70;16.30;;;7.70;54.50;;;;;;5052597;28;20194;-68
2023/03/01 10:35:37;;;;;;;19.25;15.60;;;7.70;54.00;;;;;;5052789;28;20187;-69
2023/03/01 10:38:07;;;;;;;20.30;15.15;;;7.70;54.10;;;;;;5053034;28;20187;-68
2023/03/01 10:40:35;;;;;;;20.65;14.70;;;7.80;53.80;;;;;;5053512;28;20205;-68
2023/03/01 10:43:07;;;;;;;20.92;15.02;;;7.80;53.20;;;;;;5053007;28;20682;-68
2023/03/01 10:45:39;;;;;;;21.83;14.82;;;7.80;52.80;;;;;;5053123;28;20198;-68
2023/03/01 10:48:13;;;;;;;17.98;14.20;;;7.70;52.50;;;;;;5052756;28;20194;-69
2023/03/01 10:50:41;;;;;;;15.77;12.02;;;7.60;53.00;;;;;;5056906;28;20209;-68
2023/03/01 10:53:24;;;;;;;18.65;14.25;;;7.60;52.50;;;;;;5052360;28;20190;-69
2023/03/01 10:56:02;;;;;;;18.60;14.68;;;7.40;52.30;;;;;;5053320;28;20197;-69
2023/03/01 10:58:30;;;;;;;20.77;14.35;;;7.30;52.50;;;;;;5044823;28;20193;-68
2023/03/01 11:01:03;;;;;;;21.33;16.25;;;7.20;53.20;;;;;;5046079;28;20194;-69
2023/03/01 11:03:35;;;;;;;19.65;15.18;;;7.10;53.20;;;;;;5051385;28;20301;-68
2023/03/01 11:06:06;;;;;;;21.67;14.05;;;7.00;53.40;;;;;;5047162;28;20194;-68
2023/03/01 11:08:37;;;;;;;23.27;15.70;;;6.90;54.20;;;;;;5051069;28;20183;-68
2023/03/01 11:11:24;;;;;;;18.15;14.65;;;6.90;53.80;;;;;;5051358;28;20295;-70
2023/03/01 11:13:59;;;;;;;17.70;12.95;;;6.90;54.50;;;;;;5052189;28;20195;-68
2023/03/01 11:16:35;;;;;;;19.27;14.70;;;6.80;53.90;;;;;;5051558;28;20273;-68
2023/03/01 11:19:15;;;;;;;21.52;13.90;;;6.80;54.30;;;;;;5054017;28;20213;-68
2023/03/01 11:21:53;;;;;;;19.85;15.15;;;6.70;54.40;;;;;;5048532;28;20581;-68
2023/03/01 11:24:25;;;;;;;20.58;13.80;;;6.70;54.10;;;;;;5051253;28;20210;-69
2023/03/01 11:26:57;;;;;;;18.08;14.18;;;6.60;54.60;;;;;;5051399;28;20205;-68
2023/03/01 11:29:32;;;;;;;22.13;15.18;;;6.60;54.40;;;;;;5051394;28;20216;-68
2023/03/01 11:32:05;;;;;;;19.77;14.25;;;6.60;54.70;;;;;;5048537;28;20554;-68
2023/03/01 11:34:41;;;;;;;25.38;18.83;;;6.70;54.80;;;;;;5051397;28;20182;-68
2023/03/01 11:37:24;;;;;;;29.00;21.35;;;6.70;55.10;;;;;;5050429;28;20676;-69
2023/03/01 11:40:04;;;;;;;31.55;23.23;;;6.70;54.60;;;;;;5049113;28;20194;-69
2023/03/01 11:42:42;;;;;;;23.52;17.58;;;6.60;54.40;;;;;;5051488;28;20358;-68
2023/03/01 11:45:13;;;;;;;18.33;13.98;;;6.60;54.70;;;;;;5049502;28;20195;-69
2023/03/01 11:48:18;;;;;;;21.60;15.98;;;6.50;54.20;;;;;;5047654;28;20202;-71
2023/03/01 11:50:48;;;;;;;19.13;14.93;;;6.40;54.80;;;;;;5053705;28;20273;-69
2023/03/01 11:53:39;;;;;;;25.35;16.60;;;6.40;55.20;;;;;;5050393;28;20561;-69
2023/03/01 11:56:17;;;;;;;20.02;13.63;;;6.30;55.10;;;;;;5054315;28;20675;-69
2023/03/01 11:59:13;;;;;;;22.70;13.95;;;6.30;55.10;;;;;;5050687;28;20217;-70
2023/03/01 12:02:15;;;;;;;24.27;15.77;;;6.20;55.10;;;;;;5049471;28;20568;-70
2023/03/01 12:05:05;;;;;;;20.83;15.30;;;6.00;55.50;;;;;;5050345;28;20186;-69
2023/03/01 12:07:47;;;;;;;23.13;15.23;;;6.10;56.20;;;;;;5051873;28;20577;-70
2023/03/01 12:10:27;;;;;;;20.30;14.10;;;6.00;56.00;;;;;;5052587;28;20205;-69
2023/03/01 12:13:32;;;;;;;22.02;15.68;;;6.10;56.40;;;;;;5049902;28;20269;-69
2023/03/01 12:16:15;;;;;;;19.63;15.00;;;6.00;56.50;;;;;;5049457;28;20209;-69
2023/03/01 12:19:04;;;;;;;29.27;19.63;;;6.00;56.50;;;;;;5051427;28;20285;-69
2023/03/01 12:21:43;;;;;;;22.05;14.70;;;6.00;56.10;;;;;;5051090;28;20206;-69
2023/03/01 12:24:50;;;;;;;27.17;15.27;;;5.90;56.40;;;;;;5047895;28;20249;-69
2023/03/01 12:27:33;;;;;;;23.85;15.25;;;5.90;56.70;;;;;;5050769;28;20194;-69
2023/03/01 12:30:18;;;;;;;23.63;14.10;;;5.80;56.70;;;;;;5052062;28;20277;-69
2023/03/01 12:33:01;;;;;;;19.67;14.60;;;5.80;57.00;;;;;;5048846;28;20226;-69
2023/03/01 12:35:44;;;;;;;17.50;13.35;;;5.70;57.10;;;;;;5053499;28;20189;-68
2023/03/01 12:38:26;;;;;;;22.80;15.50;;;5.70;57.30;;;;;;5050509;28;20209;-69
2023/03/01 12:41:28;;;;;;;21.73;15.18;;;5.70;57.20;;;;;;5050384;28;20194;-69
2023/03/01 12:44:10;;;;;;;24.35;15.32;;;5.80;57.40;;;;;;5050280;28;20714;-69
2023/03/01 12:46:52;;;;;;;27.17;16.55;;;5.80;57.00;;;;;;5050854;28;20244;-68
2023/03/01 12:49:32;;;;;;;24.55;15.20;;;5.80;56.90;;;;;;5047247;28;20197;-68
2023/03/01 12:52:09;;;;;;;20.90;14.63;;;5.70;56.70;;;;;;5049938;28;20201;-69
2023/03/01 12:54:38;;;;;;;20.88;15.27;;;5.80;57.10;;;;;;5048181;28;20190;-68
2023/03/01 12:57:16;;;;;;;22.25;16.65;;;5.70;56.80;;;;;;5050853;28;20649;-69
2023/03/01 13:00:07;;;;;;;27.15;17.63;;;5.70;56.20;;;;;;5050965;28;20194;-68